Time;durP1;ratioP1;P1;durP2;ratioP2;P2;SDS_P1;SDS_P2;PMS_P1;PMS_P2;Temp;Humidity;BMP_temperature;BMP_pressure;BME280_temperature;BME280_humidity;BME280_pressure;Samples;Min_cycle;Max_cycle;Signal;HPM_P1;HPM_P2
2022/05/02 00:00:44;;;;;;;7.53;4.65;;;10.10;99.90;;;;;;5052271;28;20048;-70
2022/05/02 00:03:11;;;;;;;6.53;4.28;;;10.10;99.90;;;;;;5052290;28;20032;-70
2022/05/02 00:05:37;;;;;;;5.90;4.40;;;10.00;99.90;;;;;;5052327;28;20052;-70
2022/05/02 00:08:03;;;;;;;6.13;4.10;;;10.00;99.90;;;;;;5052109;28;20045;-69
2022/05/02 00:10:30;;;;;;;8.52;3.90;;;9.90;99.90;;;;;;5051709;28;20412;-70
2022/05/02 00:12:56;;;;;;;4.65;3.45;;;10.00;99.90;;;;;;5052248;28;20049;-69
2022/05/02 00:15:22;;;;;;;7.43;3.88;;;10.10;99.90;;;;;;5050967;28;20416;-70
2022/05/02 00:17:57;;;;;;;5.20;3.95;;;10.10;99.90;;;;;;5055631;28;20089;-70
2022/05/02 00:20:23;;;;;;;7.90;4.45;;;10.00;99.90;;;;;;5051993;28;20385;-69
2022/05/02 00:22:49;;;;;;;6.57;4.25;;;9.90;99.90;;;;;;5051915;28;20777;-69
2022/05/02 00:25:15;;;;;;;10.10;4.47;;;10.00;99.90;;;;;;5062135;28;20044;-70
2022/05/02 00:27:42;;;;;;;6.53;3.95;;;10.00;99.90;;;;;;5071894;28;20036;-69
2022/05/02 00:30:10;;;;;;;7.00;3.90;;;10.00;99.90;;;;;;5072003;28;20037;-69
2022/05/02 00:32:36;;;;;;;5.10;3.70;;;9.80;99.90;;;;;;5071980;28;20048;-70
2022/05/02 00:35:03;;;;;;;6.25;3.67;;;9.80;99.90;;;;;;5073160;28;20036;-70
2022/05/02 00:37:29;;;;;;;9.70;4.70;;;9.70;99.90;;;;;;5075745;28;20511;-70
2022/05/02 00:39:55;;;;;;;4.78;3.35;;;9.60;99.90;;;;;;5075751;28;20454;-70
2022/05/02 00:42:21;;;;;;;7.75;3.63;;;9.80;99.90;;;;;;5075572;28;20044;-69
2022/05/02 00:44:47;;;;;;;9.55;4.15;;;9.70;99.90;;;;;;5075373;28;20037;-70
2022/05/02 00:47:15;;;;;;;5.68;3.45;;;9.80;99.90;;;;;;5075099;28;20036;-70
2022/05/02 00:49:42;;;;;;;5.30;3.97;;;9.80;99.90;;;;;;5075445;28;20091;-70
2022/05/02 00:52:08;;;;;;;5.03;3.75;;;9.80;99.90;;;;;;5075116;28;20095;-70
2022/05/02 00:54:37;;;;;;;7.72;4.45;;;9.70;99.90;;;;;;5075386;28;20385;-70
2022/05/02 00:57:06;;;;;;;7.47;4.20;;;9.70;99.90;;;;;;5075259;28;20533;-69
2022/05/02 00:59:33;;;;;;;6.88;4.30;;;9.60;99.90;;;;;;5075413;28;20052;-69
2022/05/02 01:01:59;;;;;;;6.18;4.15;;;9.40;99.90;;;;;;5075153;28;20032;-69
2022/05/02 01:04:24;;;;;;;6.97;4.20;;;9.50;99.90;;;;;;5075272;28;20044;-69
2022/05/02 01:07:08;;;;;;;8.82;4.28;;;9.60;99.90;;;;;;5075174;28;20041;-69
2022/05/02 01:09:39;;;;;;;6.68;3.92;;;9.50;99.90;;;;;;5074934;28;20510;-69
2022/05/02 01:12:25;;;;;;;5.05;4.18;;;9.50;99.90;;;;;;5075030;28;20139;-69
2022/05/02 01:14:54;;;;;;;8.10;4.45;;;9.40;99.90;;;;;;5074953;28;20056;-69
2022/05/02 01:17:21;;;;;;;5.43;3.90;;;9.30;99.90;;;;;;5074922;28;20039;-69
2022/05/02 01:19:47;;;;;;;8.13;4.38;;;9.40;99.90;;;;;;5075322;28;20131;-69
2022/05/02 01:22:13;;;;;;;6.85;4.50;;;9.40;99.90;;;;;;5074853;28;20052;-70
2022/05/02 01:24:44;;;;;;;6.60;4.35;;;9.40;99.90;;;;;;5074911;28;20047;-69
2022/05/02 01:27:11;;;;;;;;;;;9.20;99.90;;;;;;5075229;28;20103;-69
2022/05/02 01:29:40;;;;;;;7.22;4.50;;;9.30;99.90;;;;;;5074637;28;20002;-69
2022/05/02 01:32:09;;;;;;;8.43;4.47;;;9.20;99.90;;;;;;5074717;28;20059;-69
2022/05/02 01:34:36;;;;;;;11.63;4.57;;;9.20;99.90;;;;;;5074409;28;20040;-69
2022/05/02 01:37:02;;;;;;;11.90;4.57;;;9.10;99.90;;;;;;5074133;28;20048;-70
2022/05/02 01:39:31;;;;;;;8.57;4.45;;;9.00;99.90;;;;;;5074337;28;20040;-70
2022/05/02 01:42:01;;;;;;;5.55;4.40;;;9.10;99.90;;;;;;5074423;28;20571;-70
2022/05/02 01:44:27;;;;;;;7.43;4.23;;;9.30;99.90;;;;;;5074412;28;20041;-70
2022/05/02 01:46:53;;;;;;;8.10;4.22;;;9.30;99.90;;;;;;5072904;28;20634;-70
2022/05/02 01:49:19;;;;;;;5.28;4.47;;;9.20;99.90;;;;;;5074324;28;20035;-70
2022/05/02 01:51:45;;;;;;;6.43;4.45;;;9.20;99.90;;;;;;5074317;28;20045;-70
2022/05/02 01:54:11;;;;;;;7.88;3.88;;;9.20;99.90;;;;;;5074351;28;20123;-70
2022/05/02 01:56:37;;;;;;;6.28;4.47;;;9.20;99.90;;;;;;5074213;28;20377;-70
2022/05/02 01:59:04;;;;;;;7.45;4.38;;;9.30;99.90;;;;;;5073574;28;20047;-70
2022/05/02 02:01:30;;;;;;;9.85;5.03;;;9.30;99.90;;;;;;5073885;28;20036;-70
2022/05/02 02:03:58;;;;;;;6.03;4.72;;;9.20;99.90;;;;;;5073740;28;20044;-71
2022/05/02 02:06:24;;;;;;;8.48;4.60;;;9.10;99.90;;;;;;5073959;28;20045;-70
2022/05/02 02:08:50;;;;;;;7.25;4.00;;;9.20;99.90;;;;;;5072855;28;20568;-70
2022/05/02 02:11:16;;;;;;;5.32;3.90;;;9.20;99.90;;;;;;5073936;28;20078;-70
2022/05/02 02:13:42;;;;;;;7.68;4.32;;;9.20;99.90;;;;;;5073894;28;20056;-70
2022/05/02 02:16:10;;;;;;;6.15;4.75;;;9.20;99.90;;;;;;5073738;28;20488;-70
2022/05/02 02:18:38;;;;;;;7.15;4.13;;;9.20;99.90;;;;;;5073843;28;20102;-70
2022/05/02 02:21:04;;;;;;;6.15;4.50;;;9.20;99.90;;;;;;5073482;28;20123;-70
2022/05/02 02:23:30;;;;;;;11.40;4.38;;;;;;;;;;5073384;28;20036;-71
2022/05/02 02:25:56;;;;;;;8.32;4.28;;;9.30;99.90;;;;;;5073126;28;20040;-71
2022/05/02 02:28:22;;;;;;;7.50;4.50;;;9.20;99.90;;;;;;5072983;28;20131;-70
2022/05/02 02:30:48;;;;;;;8.85;4.13;;;9.10;99.90;;;;;;5073363;28;20511;-69
2022/05/02 02:33:14;;;;;;;7.45;4.30;;;9.00;99.90;;;;;;5073507;28;20053;-69
2022/05/02 02:35:40;;;;;;;6.93;4.10;;;9.10;99.90;;;;;;5073058;28;20032;-69
2022/05/02 02:38:08;;;;;;;8.90;4.97;;;9.10;99.90;;;;;;5073608;28;20044;-69
2022/05/02 02:40:34;;;;;;;6.25;4.20;;;9.20;99.90;;;;;;5073320;28;20499;-69
2022/05/02 02:43:00;;;;;;;5.63;4.10;;;9.20;99.90;;;;;;5073277;28;20075;-69
2022/05/02 02:45:26;;;;;;;6.15;4.30;;;9.20;99.90;;;;;;5072732;28;20040;-69
2022/05/02 02:47:52;;;;;;;6.43;4.13;;;9.20;99.90;;;;;;5073190;28;20044;-69
2022/05/02 02:50:18;;;;;;;6.05;4.10;;;9.20;99.90;;;;;;5073357;28;20103;-69
2022/05/02 02:52:44;;;;;;;7.13;4.43;;;9.20;99.90;;;;;;5073191;28;20094;-69
2022/05/02 02:55:10;;;;;;;5.85;3.97;;;9.30;99.90;;;;;;5073216;28;20426;-70
2022/05/02 02:57:35;;;;;;;6.30;4.00;;;9.30;99.90;;;;;;5072820;28;20036;-70
2022/05/02 03:00:02;;;;;;;5.95;4.38;;;9.30;99.90;;;;;;5072844;28;20574;-70
2022/05/02 03:02:28;;;;;;;9.40;4.22;;;9.80;99.90;;;;;;5072870;28;20099;-71
2022/05/02 03:07:38;;;;;;;5.95;4.00;;;9.00;99.90;;;;;;5073086;28;20075;-69
2022/05/02 03:10:04;;;;;;;4.85;3.70;;;9.00;99.90;;;;;;5072944;28;20079;-69
2022/05/02 03:12:30;;;;;;;5.70;3.85;;;9.10;99.90;;;;;;5072863;28;20131;-69
2022/05/02 03:14:55;;;;;;;5.90;4.20;;;8.90;99.90;;;;;;5073023;28;20098;-69
2022/05/02 03:17:21;;;;;;;8.50;3.90;;;9.00;99.90;;;;;;5072996;28;20036;-69
2022/05/02 03:19:47;;;;;;;11.23;4.35;;;9.00;99.90;;;;;;5070546;28;20396;-69
2022/05/02 03:22:13;;;;;;;6.63;4.43;;;;;;;;;;5060412;28;20040;-71
2022/05/02 03:24:42;;;;;;;5.90;3.97;;;;;;;;;;5051828;28;20072;-71
2022/05/02 03:27:08;;;;;;;10.68;4.43;;;;;;;;;;5052870;28;20041;-71
2022/05/02 03:29:36;;;;;;;8.85;4.63;;;8.70;99.90;;;;;;5052783;28;20094;-70
2022/05/02 03:32:02;;;;;;;10.32;5.40;;;8.80;99.90;;;;;;5052800;28;20044;-70
2022/05/02 03:34:28;;;;;;;8.85;4.60;;;8.60;99.90;;;;;;5052713;28;20041;-70
2022/05/02 03:36:53;;;;;;;4.85;3.72;;;8.70;99.90;;;;;;5052610;28;20099;-70
2022/05/02 03:39:19;;;;;;;6.03;4.35;;;8.50;99.90;;;;;;5052785;28;20094;-70
2022/05/02 03:41:45;;;;;;;7.63;4.60;;;8.40;99.90;;;;;;5052446;28;20037;-70
2022/05/02 03:44:11;;;;;;;5.10;4.30;;;8.50;99.90;;;;;;5052591;28;20116;-70
2022/05/02 03:46:36;;;;;;;8.18;3.92;;;8.80;99.90;;;;;;5052675;28;20044;-70
2022/05/02 03:49:02;;;;;;;8.98;4.35;;;8.60;99.90;;;;;;5052669;28;20041;-71
2022/05/02 03:51:28;;;;;;;8.52;4.72;;;8.40;99.90;;;;;;5052146;28;20033;-71
2022/05/02 03:53:54;;;;;;;7.45;4.57;;;;;;;;;;5052398;28;20040;-71
2022/05/02 03:56:20;;;;;;;7.93;4.65;;;8.60;99.90;;;;;;5052309;28;20040;-69
2022/05/02 03:58:45;;;;;;;8.15;4.65;;;8.80;99.90;;;;;;5052577;28;20047;-69
2022/05/02 04:01:11;;;;;;;5.35;4.60;;;8.60;99.90;;;;;;5052256;28;20044;-69
2022/05/02 04:03:37;;;;;;;6.32;4.40;;;8.50;99.90;;;;;;5052253;28;20045;-69
2022/05/02 04:06:03;;;;;;;6.65;4.88;;;8.30;99.90;;;;;;5052332;28;20029;-69
2022/05/02 04:08:29;;;;;;;6.38;4.38;;;8.30;99.90;;;;;;5052011;28;20037;-69
2022/05/02 04:10:55;;;;;;;9.90;4.90;;;8.20;99.90;;;;;;5060784;28;20135;-68
2022/05/02 04:13:20;;;;;;;12.00;5.47;;;8.10;99.90;;;;;;5074731;28;20048;-69
2022/05/02 04:15:46;;;;;;;5.55;4.50;;;8.20;99.90;;;;;;5073128;28;20039;-69
2022/05/02 04:18:12;;;;;;;7.65;4.93;;;8.30;99.90;;;;;;5073844;28;20044;-69
2022/05/02 04:20:38;;;;;;;7.03;5.18;;;8.60;99.90;;;;;;5061961;28;20037;-68
2022/05/02 04:23:04;;;;;;;8.50;5.53;;;8.60;99.90;;;;;;5078164;28;20068;-68
2022/05/02 04:25:29;;;;;;;6.25;4.70;;;8.80;99.90;;;;;;5072735;28;20127;-69
2022/05/02 04:27:55;;;;;;;11.18;5.45;;;8.80;99.90;;;;;;5074607;28;20036;-69
2022/05/02 04:30:21;;;;;;;7.82;4.95;;;8.80;99.90;;;;;;5081244;28;20055;-69
2022/05/02 04:32:47;;;;;;;14.57;5.28;;;8.80;99.90;;;;;;5090265;28;20047;-69
2022/05/02 04:35:12;;;;;;;9.68;4.85;;;8.70;99.90;;;;;;5094967;28;20047;-69
2022/05/02 04:37:38;;;;;;;7.75;4.53;;;8.80;99.90;;;;;;5093816;28;20511;-70
2022/05/02 04:40:05;;;;;;;6.47;4.82;;;8.80;99.90;;;;;;5094028;28;20028;-69
2022/05/02 04:42:51;;;;;;;8.80;5.03;;;8.90;99.90;;;;;;5093764;28;20098;-69
2022/05/02 04:45:36;;;;;;;10.23;5.25;;;8.90;99.90;;;;;;5093842;28;20047;-70
2022/05/02 04:48:02;;;;;;;6.55;4.80;;;8.90;99.90;;;;;;5074520;28;20452;-71
2022/05/02 04:53:14;;;;;;;8.05;5.10;;;8.90;99.90;;;;;;5066577;28;20098;-69
2022/05/02 04:56:00;;;;;;;13.95;6.55;;;8.90;99.90;;;;;;5073584;28;20028;-70
2022/05/02 04:58:25;;;;;;;7.50;4.72;;;9.10;99.90;;;;;;5058809;28;20182;-69
2022/05/02 05:06:24;;;;;;;9.60;5.97;;;9.10;99.90;;;;;;5071857;28;20033;-69
2022/05/02 05:08:50;;;;;;;7.78;5.22;;;9.10;99.90;;;;;;5071550;28;20508;-70
2022/05/02 05:20:59;;;;;;;7.65;4.70;;;9.20;99.90;;;;;;5070755;28;20123;-69
2022/05/02 05:23:28;;;;;;;8.38;5.07;;;9.40;99.90;;;;;;5071754;28;20064;-70
2022/05/02 05:26:08;;;;;;;6.78;4.57;;;9.70;99.90;;;;;;5063570;28;20523;-69
2022/05/02 05:29:01;;;;;;;29.27;9.82;;;9.70;99.90;;;;;;5054983;28;20099;-69
2022/05/02 05:31:41;;;;;;;10.60;5.78;;;9.90;99.90;;;;;;5054547;28;20460;-70
2022/05/02 05:34:31;;;;;;;8.82;4.55;;;9.90;99.90;;;;;;5054177;28;20076;-67
2022/05/02 05:37:23;;;;;;;8.35;5.00;;;9.80;99.90;;;;;;5053584;28;20171;-69
2022/05/02 05:40:10;;;;;;;9.10;4.72;;;9.70;99.90;;;;;;5054657;28;20048;-68
2022/05/02 05:43:01;;;;;;;6.95;4.68;;;9.80;99.90;;;;;;5054412;28;20033;-70
2022/05/02 05:45:27;;;;;;;7.00;4.93;;;9.70;99.90;;;;;;5061983;28;20060;-69
2022/05/02 05:48:33;;;;;;;6.85;4.95;;;9.90;99.90;;;;;;5057770;28;20079;-68
2022/05/02 05:51:20;;;;;;;15.18;5.50;;;10.10;99.90;;;;;;5054394;28;20524;-69
2022/05/02 05:53:46;;;;;;;8.20;4.90;;;10.10;99.90;;;;;;5054386;28;20041;-70
2022/05/02 05:56:44;;;;;;;8.13;5.18;;;10.10;99.90;;;;;;5059397;28;20401;-70
2022/05/02 05:59:32;;;;;;;9.50;5.03;;;10.50;99.90;;;;;;5055708;28;20493;-70
2022/05/02 06:02:23;;;;;;;8.05;5.45;;;10.50;99.90;;;;;;5053895;28;20650;-70
2022/05/02 06:04:50;;;;;;;6.38;4.38;;;10.60;99.90;;;;;;5053918;28;20045;-70
2022/05/02 06:07:18;;;;;;;7.00;4.50;;;10.70;99.90;;;;;;5053852;28;20040;-70
2022/05/02 06:09:45;;;;;;;7.60;4.18;;;10.80;99.90;;;;;;5053869;28;20045;-68
2022/05/02 06:12:15;;;;;;;12.82;4.68;;;11.00;99.90;;;;;;5053969;28;20037;-69
2022/05/02 06:20:18;;;;;;;11.02;5.25;;;12.00;99.90;;;;;;5072322;28;20462;-70
2022/05/02 06:22:46;;;;;;;7.05;5.28;;;12.40;99.90;;;;;;5073307;28;20098;-69
2022/05/02 06:25:14;;;;;;;7.43;4.43;;;12.30;99.90;;;;;;5073503;28;20064;-70
2022/05/02 06:27:41;;;;;;;9.50;5.45;;;12.20;99.90;;;;;;5073568;28;20048;-68
2022/05/02 06:30:09;;;;;;;9.48;5.28;;;12.10;99.90;;;;;;5073557;28;20028;-69
2022/05/02 06:32:37;;;;;;;8.30;4.82;;;12.20;99.90;;;;;;5071480;28;20049;-70
2022/05/02 06:35:04;;;;;;;22.70;9.95;;;12.20;99.90;;;;;;5073645;28;20070;-70
2022/05/02 06:37:35;;;;;;;11.63;6.07;;;12.50;99.90;;;;;;5073558;28;20048;-70
2022/05/02 06:40:25;;;;;;;8.70;5.50;;;12.60;99.90;;;;;;5073611;28;20399;-69
2022/05/02 06:43:12;;;;;;;8.27;5.20;;;12.90;99.90;;;;;;5073457;28;20134;-70
2022/05/02 06:45:44;;;;;;;10.93;6.30;;;13.40;99.90;;;;;;5073449;28;20032;-69
2022/05/02 06:48:24;;;;;;;20.85;10.65;;;13.30;99.90;;;;;;5073405;28;20470;-68
2022/05/02 06:50:59;;;;;;;9.07;6.20;;;13.20;99.90;;;;;;5073024;28;20466;-70
2022/05/02 06:53:32;;;;;;;7.93;5.07;;;13.30;99.90;;;;;;5073163;28;20117;-69
2022/05/02 06:56:18;;;;;;;12.18;7.10;;;13.60;99.90;;;;;;5073587;28;20602;-70
2022/05/02 06:58:57;;;;;;;11.88;5.97;;;13.60;99.90;;;;;;5073476;28;20130;-70
2022/05/02 07:01:28;;;;;;;9.93;5.63;;;13.80;99.90;;;;;;5073366;28;20372;-69
2022/05/02 07:04:13;;;;;;;9.70;5.50;;;13.90;99.90;;;;;;5072963;28;20036;-70
2022/05/02 07:07:10;;;;;;;8.68;5.00;;;14.30;99.90;;;;;;5073278;28;20131;-70
2022/05/02 07:09:44;;;;;;;16.15;9.05;;;14.10;99.90;;;;;;5073162;28;20464;-69
2022/05/02 07:12:23;;;;;;;7.53;4.95;;;14.40;99.90;;;;;;5072968;28;20036;-71
2022/05/02 07:15:05;;;;;;;17.25;8.82;;;14.50;99.90;;;;;;5073095;28;20040;-70
2022/05/02 07:17:42;;;;;;;15.55;8.23;;;14.70;99.90;;;;;;5073087;28;20570;-70
2022/05/02 07:20:24;;;;;;;12.25;5.20;;;14.60;99.90;;;;;;5073101;28;20200;-71
2022/05/02 07:23:00;;;;;;;7.72;4.93;;;14.90;99.90;;;;;;5073024;28;20040;-70
2022/05/02 07:25:28;;;;;;;8.80;5.07;;;14.90;99.90;;;;;;5073000;28;20120;-70
2022/05/02 07:28:12;;;;;;;8.68;5.45;;;15.10;99.90;;;;;;5073025;28;20106;-68
2022/05/02 07:30:38;;;;;;;9.70;6.97;;;15.30;99.90;;;;;;5072822;28;20074;-70
2022/05/02 07:33:07;;;;;;;9.07;5.78;;;15.50;99.90;;;;;;5072499;28;20048;-70
2022/05/02 07:35:35;;;;;;;32.97;19.13;;;15.80;99.90;;;;;;5072822;28;20036;-70
2022/05/02 07:38:01;;;;;;;26.17;13.88;;;15.60;99.90;;;;;;5072837;28;20036;-69
2022/05/02 07:40:29;;;;;;;196.43;116.22;;;15.90;99.90;;;;;;5072840;28;20041;-70
2022/05/02 07:42:56;;;;;;;106.43;57.92;;;15.90;99.90;;;;;;5072935;28;20036;-70
2022/05/02 07:45:28;;;;;;;155.05;81.88;;;16.00;99.90;;;;;;5076146;28;20051;-69
2022/05/02 07:47:58;;;;;;;43.53;23.75;;;16.00;99.90;;;;;;5076882;28;20491;-69
2022/05/02 07:50:27;;;;;;;149.40;71.57;;;16.80;99.90;;;;;;5076807;28;20044;-71
2022/05/02 07:52:54;;;;;;;64.82;30.70;;;16.70;99.40;;;;;;5076512;28;20056;-70
2022/05/02 07:55:24;;;;;;;38.08;18.70;;;17.00;99.20;;;;;;5076628;28;20036;-71
2022/05/02 07:57:54;;;;;;;18.33;9.77;;;17.40;99.90;;;;;;5076420;28;20041;-70
2022/05/02 08:00:20;;;;;;;12.77;7.22;;;17.50;98.30;;;;;;5076632;28;20395;-71
2022/05/02 08:02:46;;;;;;;17.25;9.07;;;17.40;96.40;;;;;;5076652;28;20036;-71
2022/05/02 08:05:12;;;;;;;21.05;11.20;;;17.20;96.20;;;;;;5076586;28;20521;-71
2022/05/02 08:07:43;;;;;;;14.27;7.63;;;17.40;98.50;;;;;;5076222;28;20089;-70
2022/05/02 08:10:42;;;;;;;16.95;10.32;;;17.50;97.10;;;;;;5073668;28;20046;-70
2022/05/02 08:13:39;;;;;;;20.85;6.43;;;17.70;97.40;;;;;;5074434;28;20060;-71
2022/05/02 08:16:13;;;;;;;4.63;3.88;;;17.50;96.70;;;;;;5067885;28;20044;-71
2022/05/02 08:19:01;;;;;;;7.30;3.95;;;17.40;95.60;;;;;;5076166;28;20056;-71
2022/05/02 08:21:32;;;;;;;8.55;3.60;;;17.90;96.00;;;;;;5076267;28;20047;-70
2022/05/02 08:27:24;;;;;;;6.43;4.50;;;17.30;95.00;;;;;;5076085;28;20514;-70
2022/05/02 08:30:06;;;;;;;10.93;5.47;;;17.70;94.60;;;;;;5076165;28;20128;-69
2022/05/02 08:32:59;;;;;;;9.55;4.50;;;18.30;96.10;;;;;;5075925;28;20105;-68
2022/05/02 08:36:03;;;;;;;6.95;4.38;;;18.30;95.40;;;;;;5075836;28;20139;-68
2022/05/02 08:38:46;;;;;;;5.95;3.67;;;18.40;95.20;;;;;;5075864;28;20098;-71
2022/05/02 08:41:53;;;;;;;6.40;3.78;;;18.50;94.90;;;;;;5075847;28;20488;-69
2022/05/02 08:44:38;;;;;;;3.80;3.22;;;18.40;94.30;;;;;;5075747;28;20048;-69
2022/05/02 08:47:25;;;;;;;9.00;3.92;;;18.60;93.40;;;;;;5075788;28;20037;-68
2022/05/02 08:49:57;;;;;;;7.03;3.75;;;18.60;94.50;;;;;;5075645;28;20498;-69
2022/05/02 08:52:47;;;;;;;6.35;3.78;;;18.40;93.40;;;;;;5075348;28;20462;-69
2022/05/02 08:55:31;;;;;;;7.18;3.58;;;18.10;92.80;;;;;;5074868;28;20588;-70
2022/05/02 08:58:24;;;;;;;7.85;3.70;;;18.20;92.90;;;;;;5075348;28;20037;-70
2022/05/02 09:01:09;;;;;;;6.72;3.58;;;18.40;93.70;;;;;;5075556;28;20403;-71
2022/05/02 09:04:28;;;;;;;5.95;3.85;;;18.80;92.90;;;;;;5075258;28;20044;-69
2022/05/02 09:07:24;;;;;;;5.50;3.90;;;18.70;93.20;;;;;;5011168;28;20448;-70
2022/05/02 09:09:50;;;;;;;5.97;4.32;;;18.40;93.00;;;;;;5060079;28;20408;-71
2022/05/02 09:12:47;;;;;;;5.65;4.38;;;18.20;92.60;;;;;;5053189;28;20040;-70
2022/05/02 09:15:22;;;;;;;5.88;3.72;;;17.90;92.80;;;;;;5054846;28;20036;-70
2022/05/02 09:18:09;;;;;;;5.95;3.75;;;17.90;93.20;;;;;;5054916;28;20123;-69
2022/05/02 09:21:07;;;;;;;7.15;4.20;;;17.40;93.10;;;;;;5055022;28;20090;-68
2022/05/02 09:23:35;;;;;;;8.50;4.30;;;17.60;91.80;;;;;;5055030;28;20068;-68
2022/05/02 09:26:07;;;;;;;7.25;3.60;;;17.80;92.30;;;;;;5054880;28;20119;-68
2022/05/02 09:28:38;;;;;;;6.70;3.70;;;17.30;92.90;;;;;;5054742;28;20124;-69
2022/05/02 09:31:22;;;;;;;8.75;4.97;;;17.60;93.60;;;;;;5055004;28;20036;-70
2022/05/02 09:33:48;;;;;;;11.50;4.72;;;17.90;91.90;;;;;;5054904;28;20036;-70
2022/05/02 09:36:32;;;;;;;7.25;4.20;;;18.10;93.00;;;;;;5054860;28;20063;-68
2022/05/02 09:39:21;;;;;;;6.05;4.20;;;17.30;93.40;;;;;;5054722;28;20091;-70
2022/05/02 09:42:23;;;;;;;6.20;4.40;;;17.80;93.30;;;;;;5054582;28;20128;-68
2022/05/02 09:52:01;;;;;;;9.20;4.75;;;18.00;92.80;;;;;;5034062;28;20443;-68
2022/05/02 09:57:50;;;;;;;7.80;4.10;;;18.20;93.10;;;;;;5054400;28;20040;-69
2022/05/02 10:03:35;;;;;;;7.55;4.78;;;17.70;92.30;;;;;;5054100;28;20124;-70
2022/05/02 10:06:18;;;;;;;10.40;4.82;;;18.20;92.60;;;;;;5042139;28;20039;-68
2022/05/02 10:08:52;;;;;;;9.40;4.90;;;18.00;92.80;;;;;;5054248;28;20052;-68
2022/05/02 10:11:47;;;;;;;9.30;5.07;;;18.00;92.40;;;;;;5054225;28;20086;-71
2022/05/02 10:14:32;;;;;;;7.53;5.20;;;18.00;92.50;;;;;;5054113;28;20057;-68
2022/05/02 10:17:17;;;;;;;7.78;5.35;;;17.80;92.00;;;;;;5053898;28;20131;-68
2022/05/02 10:20:10;;;;;;;9.43;5.40;;;17.90;91.80;;;;;;5053805;28;20504;-69
2022/05/02 10:22:39;;;;;;;7.88;4.75;;;18.30;94.00;;;;;;5054080;28;20112;-71
2022/05/02 10:25:28;;;;;;;10.27;4.65;;;18.20;92.10;;;;;;5053955;28;20446;-68
2022/05/02 10:28:05;;;;;;;6.22;4.70;;;18.40;91.60;;;;;;5053658;28;20045;-68
2022/05/02 10:30:47;;;;;;;8.18;5.15;;;18.20;92.30;;;;;;5053843;28;20420;-70
2022/05/02 10:33:20;;;;;;;8.02;5.90;;;18.10;91.40;;;;;;5053580;28;20537;-67
2022/05/02 10:35:50;;;;;;;9.02;5.13;;;18.00;92.90;;;;;;5053607;28;20472;-70
2022/05/02 10:38:28;;;;;;;7.47;4.93;;;18.20;92.50;;;;;;5053433;28;20574;-70
2022/05/02 10:41:06;;;;;;;8.23;5.28;;;18.20;91.80;;;;;;5053768;28;20064;-68
2022/05/02 10:43:36;;;;;;;5.90;4.85;;;18.60;92.80;;;;;;5053733;28;20065;-69
2022/05/02 10:46:02;;;;;;;6.72;5.32;;;17.60;92.00;;;;;;5053571;28;20552;-70
2022/05/02 10:48:40;;;;;;;10.00;5.30;;;17.60;91.80;;;;;;5053513;28;20041;-71
2022/05/02 10:51:31;;;;;;;11.88;5.80;;;18.00;92.90;;;;;;5053620;28;20447;-71
2022/05/02 10:54:16;;;;;;;10.43;6.13;;;18.10;92.50;;;;;;5053290;28;20412;-70
2022/05/02 10:56:44;;;;;;;6.32;5.50;;;17.80;91.50;;;;;;5053117;28;20119;-70
2022/05/02 10:59:13;;;;;;;7.13;5.32;;;17.80;91.90;;;;;;5053120;28;20519;-71
2022/05/02 11:01:58;;;;;;;9.07;5.28;;;17.70;92.20;;;;;;5053298;28;20052;-71
2022/05/02 11:04:45;;;;;;;8.85;5.70;;;17.90;92.00;;;;;;5053213;28;20032;-68
2022/05/02 11:07:31;;;;;;;7.75;5.72;;;18.20;91.60;;;;;;5053090;28;20037;-68
2022/05/02 11:10:09;;;;;;;6.97;5.35;;;18.20;91.20;;;;;;5053025;28;20063;-68
2022/05/02 11:12:42;;;;;;;8.10;5.78;;;18.20;92.30;;;;;;5052890;28;20056;-68
2022/05/02 11:15:13;;;;;;;6.03;5.05;;;18.60;92.30;;;;;;5053074;28;20095;-68
2022/05/02 11:17:42;;;;;;;11.20;5.18;;;19.00;93.40;;;;;;5053235;28;20558;-68
2022/05/02 11:23:28;;;;;;;8.60;6.05;;;18.70;90.70;;;;;;5072774;28;20040;-71
2022/05/02 11:26:07;;;;;;;7.43;5.03;;;18.50;90.90;;;;;;5072740;28;20028;-68
2022/05/02 11:28:48;;;;;;;7.88;5.93;;;18.90;91.50;;;;;;5072646;28;20070;-68
2022/05/02 11:31:55;;;;;;;8.60;5.65;;;18.80;91.50;;;;;;5072845;28;20047;-69
2022/05/02 11:34:55;;;;;;;8.70;5.28;;;18.70;91.20;;;;;;5067018;28;20051;-68
2022/05/02 11:37:54;;;;;;;12.10;6.18;;;18.80;91.00;;;;;;5072898;28;20071;-69
2022/05/02 11:40:47;;;;;;;7.25;5.78;;;18.20;90.70;;;;;;5070530;28;20041;-68
2022/05/02 11:43:21;;;;;;;10.20;5.15;;;18.50;91.10;;;;;;5072638;28;20040;-71
2022/05/02 11:46:15;;;;;;;10.45;6.20;;;18.60;91.60;;;;;;5073023;28;20442;-70
2022/05/02 11:49:12;;;;;;;8.68;5.45;;;18.30;91.10;;;;;;5067839;28;20032;-69
2022/05/02 11:51:43;;;;;;;9.68;5.38;;;18.20;90.70;;;;;;5072614;28;20032;-68
2022/05/02 11:54:27;;;;;;;9.93;5.57;;;18.60;91.50;;;;;;5072725;28;20076;-71
2022/05/02 11:57:20;;;;;;;7.90;4.72;;;18.80;91.60;;;;;;5072767;28;20032;-68
2022/05/02 11:59:58;;;;;;;7.72;5.65;;;18.80;91.80;;;;;;5073140;28;20056;-68
2022/05/02 12:02:44;;;;;;;10.70;5.53;;;19.20;90.80;;;;;;5072736;28;20067;-68
2022/05/02 12:05:30;;;;;;;6.95;4.85;;;19.10;91.00;;;;;;5051144;28;20045;-70
2022/05/02 12:07:58;;;;;;;8.70;5.90;;;19.50;91.80;;;;;;5072532;28;20068;-68
2022/05/02 12:10:47;;;;;;;9.05;5.65;;;19.50;92.20;;;;;;5072599;28;20581;-71
2022/05/02 12:13:18;;;;;;;7.43;5.40;;;19.20;90.40;;;;;;5072490;28;20053;-68
2022/05/02 12:15:56;;;;;;;8.50;5.55;;;19.20;92.30;;;;;;5072596;28;20131;-69
2022/05/02 12:18:23;;;;;;;9.70;5.88;;;19.50;91.00;;;;;;5072420;28;20480;-71
2022/05/02 12:20:58;;;;;;;9.38;4.70;;;19.30;89.40;;;;;;5072475;28;20035;-72
2022/05/02 12:23:33;;;;;;;6.60;5.03;;;19.10;90.50;;;;;;5072493;28;20522;-68
2022/05/02 12:25:59;;;;;;;11.82;5.18;;;19.60;90.80;;;;;;5072440;28;20044;-68
2022/05/02 12:28:45;;;;;;;7.72;4.35;;;19.40;90.10;;;;;;5072137;28;20039;-69
2022/05/02 12:31:34;;;;;;;7.57;4.03;;;19.90;92.70;;;;;;5073388;28;20028;-69
2022/05/02 12:34:05;;;;;;;10.18;5.25;;;20.30;92.30;;;;;;5075859;28;20044;-71
2022/05/02 12:36:52;;;;;;;10.50;5.57;;;19.50;89.90;;;;;;5074623;28;20462;-71
2022/05/02 12:39:18;;;;;;;12.02;5.95;;;18.80;90.00;;;;;;5075703;28;20044;-70
2022/05/02 12:41:49;;;;;;;7.90;5.55;;;17.90;89.80;;;;;;5075940;28;20036;-69
2022/05/02 12:44:16;;;;;;;6.55;4.55;;;18.20;90.40;;;;;;5075907;28;20048;-68
2022/05/02 12:46:52;;;;;;;6.68;4.70;;;18.50;91.90;;;;;;5075762;28;20044;-69
2022/05/02 12:49:22;;;;;;;7.55;4.85;;;18.40;90.60;;;;;;5075767;28;20044;-70
2022/05/02 12:51:56;;;;;;;8.13;4.37;;;18.40;90.60;;;;;;5075259;28;20939;-72
2022/05/02 12:54:26;;;;;;;8.00;4.75;;;18.60;90.60;;;;;;5075578;28;20290;-71
2022/05/02 13:02:46;;;;;;;7.60;4.38;;;20.00;91.70;;;;;;5075436;28;21102;-71
2022/05/02 13:05:23;;;;;;;7.05;4.15;;;19.70;90.00;;;;;;5075439;28;20068;-69
2022/05/02 13:07:54;;;;;;;11.18;4.70;;;19.30;90.50;;;;;;5075425;28;20048;-68
2022/05/02 13:10:25;;;;;;;7.57;4.63;;;19.40;90.60;;;;;;5073583;28;20040;-70
2022/05/02 13:13:15;;;;;;;7.88;5.20;;;19.10;90.20;;;;;;5063506;28;20139;-70
2022/05/02 13:15:44;;;;;;;9.15;5.30;;;19.10;91.00;;;;;;5054461;28;20049;-69
2022/05/02 13:18:20;;;;;;;5.97;4.72;;;18.60;90.80;;;;;;5055285;28;20496;-71
2022/05/02 13:21:13;;;;;;;9.45;4.03;;;18.50;90.80;;;;;;5055126;28;20074;-70
2022/05/02 13:23:44;;;;;;;8.45;4.82;;;18.30;90.60;;;;;;5055038;28;20037;-69
2022/05/02 13:26:42;;;;;;;11.57;4.30;;;18.00;91.30;;;;;;5055134;28;20040;-68
2022/05/02 13:29:09;;;;;;;6.30;4.18;;;18.10;90.90;;;;;;5055044;28;20033;-71
2022/05/02 13:31:41;;;;;;;11.30;5.15;;;18.10;91.60;;;;;;5054808;28;20044;-69
2022/05/02 13:34:19;;;;;;;6.38;3.85;;;17.90;90.40;;;;;;5054808;28;20045;-71
2022/05/02 13:36:50;;;;;;;13.25;4.13;;;17.90;90.60;;;;;;5054838;28;20056;-68
2022/05/02 13:39:22;;;;;;;7.80;3.95;;;17.90;90.40;;;;;;5054896;28;20033;-71
2022/05/02 13:42:11;;;;;;;5.07;4.10;;;17.80;90.50;;;;;;5054222;28;20689;-69
2022/05/02 13:44:52;;;;;;;12.00;5.30;;;18.00;90.70;;;;;;5023338;28;20033;-71
2022/05/02 13:47:22;;;;;;;21.45;4.90;;;18.10;90.60;;;;;;5054605;28;20041;-71
2022/05/02 13:50:12;;;;;;;9.93;4.87;;;18.50;91.30;;;;;;5054578;28;20088;-70
2022/05/02 13:53:06;;;;;;;6.72;4.60;;;18.80;92.00;;;;;;5054367;28;20045;-71
2022/05/02 13:55:57;;;;;;;6.00;4.35;;;18.90;91.30;;;;;;5054561;28;20124;-69
2022/05/02 13:58:39;;;;;;;11.57;5.18;;;18.70;91.00;;;;;;5054368;28;20040;-68
2022/05/02 14:01:32;;;;;;;11.32;4.05;;;18.50;90.80;;;;;;5054497;28;20060;-68
2022/05/02 14:09:44;;;;;;;8.50;4.10;;;18.90;91.00;;;;;;5054649;28;20041;-71
2022/05/02 14:12:31;;;;;;;7.05;4.32;;;18.90;90.50;;;;;;5054125;28;20392;-71
2022/05/02 14:14:59;;;;;;;5.25;4.03;;;18.70;90.70;;;;;;5054088;28;20068;-68
2022/05/02 14:17:31;;;;;;;6.25;4.20;;;19.00;90.40;;;;;;5053842;28;20396;-69
2022/05/02 14:20:11;;;;;;;6.32;4.93;;;19.50;90.90;;;;;;5054009;28;20090;-71
2022/05/02 14:22:39;;;;;;;7.45;4.40;;;18.70;88.50;;;;;;5053828;28;20041;-71
2022/05/02 14:25:14;;;;;;;15.18;4.78;;;18.70;90.80;;;;;;5053776;28;20072;-68